Time;durP1;ratioP1;P1;durP2;ratioP2;P2;SDS_P1;SDS_P2;PMS_P1;PMS_P2;Temp;Humidity;BMP_temperature;BMP_pressure;BME280_temperature;BME280_humidity;BME280_pressure;Samples;Min_cycle;Max_cycle;Signal;HPM_P1;HPM_P2
2022/07/16 00:01:23;;;;;;;2.58;2.13;;;18.50;99.90;;;;;;5082900;28;20040;-79
2022/07/16 00:03:54;;;;;;;1.88;1.77;;;18.50;99.90;;;;;;5084485;28;20087;-81
2022/07/16 00:06:21;;;;;;;3.72;1.95;;;18.40;99.90;;;;;;5086180;28;20032;-79
2022/07/16 00:08:47;;;;;;;2.35;1.73;;;18.30;99.90;;;;;;5077876;28;20062;-78
2022/07/16 00:11:12;;;;;;;2.28;2.08;;;18.20;99.90;;;;;;5074473;28;20039;-79
2022/07/16 00:13:39;;;;;;;9.68;2.63;;;18.20;99.90;;;;;;5073860;28;20024;-80
2022/07/16 00:16:09;;;;;;;3.00;1.98;;;18.20;99.90;;;;;;5081246;28;20052;-78
2022/07/16 00:21:19;;;;;;;2.38;2.28;;;18.10;99.90;;;;;;5076920;28;20031;-79
2022/07/16 00:23:45;;;;;;;2.38;2.03;;;18.00;99.90;;;;;;5081638;28;20028;-79
2022/07/16 00:26:10;;;;;;;2.97;2.55;;;17.90;99.90;;;;;;5079569;28;20051;-78
2022/07/16 00:28:36;;;;;;;4.47;2.47;;;17.90;99.90;;;;;;5090660;28;20025;-78
2022/07/16 00:31:02;;;;;;;4.45;2.80;;;17.90;99.90;;;;;;5079940;28;20005;-79
2022/07/16 00:33:27;;;;;;;2.60;2.33;;;17.90;99.90;;;;;;5092894;28;20020;-79
2022/07/16 00:35:55;;;;;;;3.55;2.30;;;17.90;99.90;;;;;;5082072;28;20033;-80
2022/07/16 00:38:21;;;;;;;4.65;2.33;;;17.80;99.90;;;;;;5081275;28;20051;-79
2022/07/16 00:40:46;;;;;;;4.90;2.20;;;17.80;99.90;;;;;;5079520;28;20401;-79
2022/07/16 00:43:13;;;;;;;2.85;2.53;;;17.80;99.90;;;;;;5081937;28;20017;-79
2022/07/16 00:45:39;;;;;;;3.10;2.70;;;17.80;99.90;;;;;;5078572;28;20435;-78
2022/07/16 00:48:05;;;;;;;4.10;2.20;;;17.80;99.90;;;;;;5073245;28;20024;-80
2022/07/16 00:50:31;;;;;;;3.00;2.80;;;17.80;99.90;;;;;;5073606;28;20059;-79
2022/07/16 00:52:59;;;;;;;3.55;3.20;;;17.80;99.90;;;;;;5073602;28;20021;-80
2022/07/16 00:55:25;;;;;;;4.15;2.72;;;17.90;99.90;;;;;;5073742;28;20037;-79
2022/07/16 00:57:50;;;;;;;3.90;2.63;;;17.90;99.90;;;;;;5073032;28;20483;-80
2022/07/16 01:00:16;;;;;;;3.20;2.40;;;17.90;99.90;;;;;;5072117;28;20036;-80
2022/07/16 01:02:42;;;;;;;6.85;2.78;;;17.90;99.90;;;;;;5072794;28;20017;-81
2022/07/16 01:05:08;;;;;;;4.47;2.70;;;17.90;99.90;;;;;;5076523;28;20032;-81
2022/07/16 01:07:34;;;;;;;5.93;3.85;;;18.00;99.90;;;;;;5076942;28;20038;-79
2022/07/16 01:10:03;;;;;;;5.45;3.67;;;17.90;99.90;;;;;;5075364;28;20044;-80
2022/07/16 01:12:28;;;;;;;8.98;3.65;;;18.00;99.90;;;;;;5075608;28;20373;-80
2022/07/16 01:14:55;;;;;;;4.68;3.10;;;17.90;99.90;;;;;;5075296;28;20029;-79
2022/07/16 01:17:21;;;;;;;6.15;3.75;;;17.90;99.90;;;;;;5075822;28;20032;-80
2022/07/16 01:19:46;;;;;;;4.63;3.85;;;17.90;99.90;;;;;;5075636;28;20112;-80
2022/07/16 01:22:21;;;;;;;11.15;3.70;;;17.90;99.90;;;;;;5077348;28;20028;-80
2022/07/16 01:24:48;;;;;;;4.95;3.90;;;17.80;99.90;;;;;;5075069;28;20021;-77
2022/07/16 01:27:16;;;;;;;4.28;3.88;;;17.80;99.90;;;;;;5077058;28;20029;-80
2022/07/16 01:29:42;;;;;;;4.43;3.92;;;17.80;99.90;;;;;;5077191;28;20162;-80
2022/07/16 01:32:07;;;;;;;4.05;3.58;;;17.70;99.90;;;;;;5076655;28;20082;-80
2022/07/16 01:34:33;;;;;;;5.68;4.70;;;17.60;99.90;;;;;;5077515;28;20031;-79
2022/07/16 01:37:03;;;;;;;5.72;5.13;;;17.60;99.90;;;;;;5059236;28;20028;-82
2022/07/16 01:39:31;;;;;;;5.97;5.37;;;17.70;99.90;;;;;;5076008;28;20027;-80
2022/07/16 01:41:59;;;;;;;5.80;4.20;;;17.70;99.90;;;;;;5076825;28;20032;-80
2022/07/16 01:44:26;;;;;;;5.10;4.60;;;17.50;99.90;;;;;;5076834;28;20391;-78
2022/07/16 01:46:53;;;;;;;7.55;4.70;;;17.50;99.90;;;;;;5075424;28;20029;-80
2022/07/16 01:49:18;;;;;;;6.03;4.53;;;17.40;99.90;;;;;;5077652;28;20028;-80
2022/07/16 01:51:47;;;;;;;5.43;5.03;;;17.40;99.90;;;;;;5078161;28;20066;-79
2022/07/16 01:54:13;;;;;;;7.90;4.97;;;17.40;99.90;;;;;;5077528;28;20032;-80
2022/07/16 01:56:39;;;;;;;4.75;4.35;;;17.40;99.90;;;;;;5077138;28;20040;-80
2022/07/16 01:59:04;;;;;;;6.90;5.15;;;17.30;99.90;;;;;;5075675;28;20754;-80
2022/07/16 02:01:30;;;;;;;5.15;4.68;;;17.40;99.90;;;;;;5075712;28;20492;-81
2022/07/16 02:03:56;;;;;;;4.30;3.90;;;17.40;99.90;;;;;;5077385;28;20029;-80
2022/07/16 02:06:22;;;;;;;4.30;3.90;;;17.40;99.90;;;;;;5076824;28;20376;-81
2022/07/16 02:08:48;;;;;;;4.40;3.75;;;17.40;99.90;;;;;;5083467;28;20092;-79
2022/07/16 02:11:14;;;;;;;9.38;4.60;;;17.30;99.90;;;;;;5078272;28;20052;-80
2022/07/16 02:13:39;;;;;;;4.43;4.03;;;17.20;99.90;;;;;;5076247;28;20052;-80
2022/07/16 02:16:05;;;;;;;5.72;4.13;;;17.30;99.90;;;;;;5074896;28;20459;-79
2022/07/16 02:18:31;;;;;;;4.80;4.07;;;17.30;99.90;;;;;;5075838;28;20036;-79
2022/07/16 02:20:57;;;;;;;5.25;4.55;;;17.30;99.90;;;;;;5076595;28;20086;-79
2022/07/16 02:23:23;;;;;;;4.50;3.85;;;17.20;99.90;;;;;;5080689;28;20020;-79
2022/07/16 02:25:49;;;;;;;7.50;4.57;;;17.10;99.90;;;;;;5090431;28;20028;-80
2022/07/16 02:28:15;;;;;;;6.60;4.15;;;17.20;99.90;;;;;;5089002;28;20048;-80
2022/07/16 02:30:43;;;;;;;4.63;4.10;;;17.20;99.90;;;;;;5079865;28;20047;-81
2022/07/16 02:33:11;;;;;;;4.30;3.90;;;17.20;99.90;;;;;;5076760;28;20051;-81
2022/07/16 02:35:37;;;;;;;4.72;4.22;;;17.10;99.90;;;;;;5079296;28;20075;-77
2022/07/16 02:38:04;;;;;;;6.18;4.60;;;17.10;99.90;;;;;;5086696;28;20027;-81
2022/07/16 02:40:32;;;;;;;4.88;4.03;;;17.20;99.90;;;;;;5081403;28;20043;-79
2022/07/16 02:42:59;;;;;;;9.25;4.10;;;17.10;99.90;;;;;;5091571;28;20031;-79
2022/07/16 02:45:24;;;;;;;8.95;4.00;;;17.00;99.90;;;;;;5077370;28;20032;-79
2022/07/16 02:47:50;;;;;;;6.00;4.22;;;17.00;99.90;;;;;;5075978;28;20039;-80
2022/07/16 02:50:16;;;;;;;5.20;4.30;;;16.90;99.90;;;;;;5075423;28;20036;-80
2022/07/16 02:52:41;;;;;;;6.43;4.75;;;16.80;99.90;;;;;;5075757;28;20022;-78
2022/07/16 02:55:07;;;;;;;7.25;4.75;;;16.80;99.90;;;;;;5074561;28;20442;-79
2022/07/16 02:57:33;;;;;;;6.78;3.53;;;16.90;99.90;;;;;;5076591;28;20028;-81
2022/07/16 02:59:59;;;;;;;6.97;4.18;;;16.80;99.90;;;;;;5081292;28;20047;-78
2022/07/16 03:02:24;;;;;;;5.30;3.97;;;16.80;99.90;;;;;;5079295;28;20028;-80
2022/07/16 03:04:50;;;;;;;7.65;3.50;;;16.70;99.90;;;;;;5075757;28;20025;-81
2022/07/16 03:07:15;;;;;;;7.53;3.83;;;16.60;99.90;;;;;;5075213;28;20029;-80
2022/07/16 03:09:41;;;;;;;6.55;3.50;;;16.60;99.90;;;;;;5074989;28;20127;-79
2022/07/16 03:12:07;;;;;;;10.57;3.42;;;16.50;99.90;;;;;;5079323;28;20027;-80
2022/07/16 03:14:32;;;;;;;4.63;3.08;;;16.50;99.90;;;;;;5077653;28;20537;-79
2022/07/16 03:16:58;;;;;;;3.70;2.95;;;16.40;99.90;;;;;;5073039;28;20147;-79
2022/07/16 03:19:23;;;;;;;3.95;3.03;;;16.40;99.90;;;;;;5074440;28;20375;-80
2022/07/16 03:21:49;;;;;;;3.22;2.55;;;16.40;99.90;;;;;;5074104;28;20146;-80
2022/07/16 03:24:14;;;;;;;3.25;2.60;;;16.30;99.90;;;;;;5074153;28;20024;-80
2022/07/16 03:26:40;;;;;;;5.68;2.58;;;16.30;99.90;;;;;;5073598;28;20032;-80
2022/07/16 03:29:05;;;;;;;5.78;2.85;;;16.30;99.90;;;;;;5074614;28;20168;-80
2022/07/16 03:31:31;;;;;;;10.07;3.30;;;16.30;99.90;;;;;;5074812;28;20478;-81
2022/07/16 03:33:56;;;;;;;6.18;2.90;;;16.20;99.90;;;;;;5074957;28;20025;-79
2022/07/16 03:36:22;;;;;;;6.35;3.30;;;16.20;99.90;;;;;;5074207;28;20032;-81
2022/07/16 03:38:59;;;;;;;5.53;3.28;;;16.20;99.90;;;;;;5072831;28;20610;-79
2022/07/16 03:41:25;;;;;;;4.05;2.80;;;16.10;99.90;;;;;;5073953;28;20028;-80
2022/07/16 03:43:51;;;;;;;4.60;2.67;;;16.00;99.90;;;;;;5073609;28;20039;-81
2022/07/16 03:46:17;;;;;;;3.63;2.22;;;16.00;99.90;;;;;;5072908;28;20029;-80
2022/07/16 03:48:43;;;;;;;7.97;2.97;;;16.00;99.90;;;;;;5073383;28;20052;-80
2022/07/16 03:51:09;;;;;;;5.80;3.10;;;16.00;99.90;;;;;;5074602;28;20032;-80
2022/07/16 03:53:35;;;;;;;6.47;2.40;;;15.90;99.90;;;;;;5075235;28;20032;-80
2022/07/16 03:56:01;;;;;;;4.40;2.88;;;16.00;99.90;;;;;;5074425;28;20048;-81
2022/07/16 03:58:27;;;;;;;3.58;3.22;;;16.10;99.90;;;;;;5073498;28;20021;-80
2022/07/16 04:00:53;;;;;;;3.67;2.30;;;16.00;99.90;;;;;;5074834;28;20038;-79
2022/07/16 04:03:19;;;;;;;10.65;2.60;;;16.00;99.90;;;;;;5075400;28;20044;-80
2022/07/16 04:05:45;;;;;;;6.22;2.20;;;16.00;99.90;;;;;;5073023;28;20048;-80
2022/07/16 04:08:10;;;;;;;3.70;2.20;;;16.00;99.90;;;;;;5073857;28;20031;-79
2022/07/16 04:10:36;;;;;;;6.15;2.20;;;16.00;99.90;;;;;;5074304;28;20056;-79
2022/07/16 04:13:02;;;;;;;3.75;1.92;;;16.10;99.90;;;;;;5080140;28;20021;-79
2022/07/16 04:15:27;;;;;;;4.03;2.13;;;16.10;99.90;;;;;;5083400;28;20048;-81
2022/07/16 04:17:53;;;;;;;3.63;1.98;;;16.10;99.90;;;;;;5073328;28;20032;-79
2022/07/16 04:20:19;;;;;;;5.85;2.17;;;16.20;99.90;;;;;;5072431;28;20028;-78
2022/07/16 04:22:45;;;;;;;4.35;2.28;;;16.40;99.90;;;;;;5073335;28;20016;-79
2022/07/16 04:25:13;;;;;;;7.57;2.40;;;16.50;99.90;;;;;;5073842;28;20085;-78
2022/07/16 04:27:39;;;;;;;9.18;2.28;;;16.60;99.90;;;;;;5072926;28;20439;-79
2022/07/16 04:30:05;;;;;;;6.05;2.60;;;16.70;99.90;;;;;;5073005;28;20028;-79
2022/07/16 04:32:34;;;;;;;5.82;2.35;;;16.70;99.90;;;;;;5072739;28;20082;-80
2022/07/16 04:35:00;;;;;;;6.10;2.60;;;16.90;99.90;;;;;;5087848;28;20028;-80
2022/07/16 04:37:26;;;;;;;6.07;3.20;;;16.80;99.90;;;;;;5082553;28;20116;-81
2022/07/16 04:39:52;;;;;;;3.08;2.78;;;16.90;99.90;;;;;;5076395;28;20035;-79
2022/07/16 04:42:18;;;;;;;5.47;2.92;;;16.90;99.90;;;;;;5076282;28;20024;-79
2022/07/16 04:44:43;;;;;;;2.70;2.50;;;16.80;99.90;;;;;;5083685;28;20076;-77
2022/07/16 04:47:09;;;;;;;6.32;2.70;;;16.80;99.90;;;;;;5089260;28;20128;-80
2022/07/16 04:49:35;;;;;;;3.83;2.38;;;16.80;99.90;;;;;;5082645;28;20028;-79
2022/07/16 04:52:01;;;;;;;2.75;2.35;;;16.80;99.90;;;;;;5092355;28;20020;-80
2022/07/16 04:54:27;;;;;;;4.25;2.42;;;16.90;99.90;;;;;;5076901;28;20070;-79
2022/07/16 04:56:53;;;;;;;6.03;2.00;;;16.70;99.90;;;;;;5075934;28;20043;-80
2022/07/16 04:59:19;;;;;;;3.05;2.20;;;16.70;99.90;;;;;;5076489;28;20031;-80
2022/07/16 05:01:44;;;;;;;4.80;1.90;;;16.60;99.90;;;;;;5075640;28;20380;-79
2022/07/16 05:04:10;;;;;;;4.22;1.83;;;16.70;99.90;;;;;;5075849;28;20059;-79
2022/07/16 05:06:36;;;;;;;7.10;2.10;;;16.70;99.90;;;;;;5076776;28;20028;-79
2022/07/16 05:09:01;;;;;;;3.30;2.42;;;16.70;99.90;;;;;;5075212;28;20115;-79
2022/07/16 05:11:28;;;;;;;6.97;1.80;;;16.70;99.90;;;;;;5076099;28;20530;-79
2022/07/16 05:13:54;;;;;;;4.93;1.75;;;16.80;99.90;;;;;;5076039;28;20031;-79
2022/07/16 05:16:20;;;;;;;5.65;1.67;;;16.80;99.90;;;;;;5075466;28;20036;-79
2022/07/16 05:18:46;;;;;;;3.65;1.73;;;16.70;99.90;;;;;;5078671;28;20017;-80
2022/07/16 05:21:11;;;;;;;3.20;1.30;;;16.80;99.90;;;;;;5077480;28;20082;-79
2022/07/16 05:23:37;;;;;;;3.42;1.67;;;16.80;99.90;;;;;;5076353;28;20032;-79
2022/07/16 05:26:03;;;;;;;3.47;2.00;;;16.80;99.90;;;;;;5076546;28;20024;-79
2022/07/16 05:28:28;;;;;;;4.05;1.35;;;16.90;99.90;;;;;;5076064;28;20020;-80
2022/07/16 05:30:54;;;;;;;2.13;1.30;;;16.90;99.90;;;;;;5077043;28;20035;-79
2022/07/16 05:33:20;;;;;;;4.55;2.53;;;16.90;99.90;;;;;;5076625;28;20059;-79
2022/07/16 05:35:45;;;;;;;3.80;1.20;;;17.00;99.90;;;;;;5080631;28;20063;-81
2022/07/16 05:38:11;;;;;;;3.88;1.63;;;17.00;99.90;;;;;;5082150;28;20046;-80
2022/07/16 05:40:37;;;;;;;5.13;1.88;;;17.00;99.90;;;;;;5078139;28;20032;-79
2022/07/16 05:43:02;;;;;;;3.58;1.40;;;17.00;99.90;;;;;;5076637;28;20024;-79
2022/07/16 05:45:28;;;;;;;3.10;1.33;;;17.10;99.90;;;;;;5077226;28;20024;-80
2022/07/16 05:47:54;;;;;;;3.85;1.55;;;17.10;99.90;;;;;;5081305;28;20029;-79
2022/07/16 05:50:19;;;;;;;2.95;1.30;;;17.10;99.90;;;;;;5084135;28;20040;-79
2022/07/16 05:52:45;;;;;;;4.93;1.27;;;17.10;99.90;;;;;;5077003;28;20074;-80
2022/07/16 05:55:11;;;;;;;6.72;2.05;;;17.10;99.90;;;;;;5078624;28;20059;-80
2022/07/16 05:57:37;;;;;;;6.20;2.55;;;17.20;99.90;;;;;;5077247;28;20017;-79
2022/07/16 06:00:05;;;;;;;3.17;1.77;;;17.20;99.90;;;;;;5075959;28;20028;-79
2022/07/16 06:02:30;;;;;;;3.67;1.55;;;17.20;99.90;;;;;;5086721;28;20111;-81
2022/07/16 06:04:56;;;;;;;3.60;1.67;;;17.30;99.90;;;;;;5082850;28;20066;-81
2022/07/16 06:07:21;;;;;;;3.47;1.20;;;17.20;99.90;;;;;;5075483;28;20122;-80
2022/07/16 06:09:47;;;;;;;4.30;1.88;;;17.30;99.90;;;;;;5075157;28;20045;-78
2022/07/16 06:12:13;;;;;;;3.80;1.48;;;17.40;99.90;;;;;;5074516;28;20032;-79
2022/07/16 06:14:38;;;;;;;3.53;1.20;;;17.40;99.90;;;;;;5074718;28;20025;-79
2022/07/16 06:17:04;;;;;;;5.07;2.53;;;17.40;99.90;;;;;;5074310;28;20472;-79
2022/07/16 06:19:29;;;;;;;2.95;1.35;;;17.50;99.90;;;;;;5074149;28;20078;-79
2022/07/16 06:21:55;;;;;;;8.82;1.55;;;17.50;99.90;;;;;;5074168;28;20052;-79
2022/07/16 06:24:20;;;;;;;3.97;1.52;;;17.60;99.90;;;;;;5074328;28;20036;-78
2022/07/16 06:26:49;;;;;;;3.58;2.22;;;17.60;99.90;;;;;;5074492;28;20029;-80
2022/07/16 06:29:15;;;;;;;10.23;1.88;;;17.60;99.90;;;;;;5074966;28;20025;-80
2022/07/16 06:31:45;;;;;;;5.05;1.83;;;17.60;99.90;;;;;;5091384;28;20063;-78
2022/07/16 06:34:11;;;;;;;6.65;2.10;;;17.60;99.90;;;;;;5089869;28;20514;-78
2022/07/16 06:36:37;;;;;;;2.78;1.10;;;17.60;99.90;;;;;;5080559;28;20040;-78
2022/07/16 06:39:03;;;;;;;5.57;1.70;;;17.60;99.90;;;;;;5080796;28;20084;-80
2022/07/16 06:41:29;;;;;;;2.95;1.50;;;17.60;99.90;;;;;;5081233;28;20043;-79
2022/07/16 06:43:55;;;;;;;4.25;1.48;;;17.60;99.90;;;;;;5093464;28;20015;-78
2022/07/16 06:46:20;;;;;;;5.13;1.60;;;17.50;99.90;;;;;;5086651;28;20128;-80
2022/07/16 06:48:46;;;;;;;5.55;1.40;;;17.60;99.90;;;;;;5082246;28;20031;-79
2022/07/16 06:51:13;;;;;;;7.75;1.13;;;17.60;99.90;;;;;;5083468;28;20075;-79
2022/07/16 06:53:38;;;;;;;2.53;1.20;;;17.60;99.90;;;;;;5090075;28;20107;-80
2022/07/16 06:56:06;;;;;;;3.47;1.30;;;17.60;99.90;;;;;;5098746;28;20391;-80
2022/07/16 06:58:32;;;;;;;5.15;1.25;;;17.60;99.90;;;;;;5087912;28;20028;-78
2022/07/16 07:00:58;;;;;;;5.03;1.20;;;17.60;99.90;;;;;;5101874;28;20124;-81
2022/07/16 07:03:23;;;;;;;3.67;1.20;;;17.60;99.90;;;;;;5083200;28;20071;-78
2022/07/16 07:05:49;;;;;;;5.40;1.48;;;17.70;99.90;;;;;;5085170;28;20028;-81
2022/07/16 07:08:15;;;;;;;2.28;1.08;;;17.70;99.90;;;;;;5089571;28;20608;-80
2022/07/16 07:10:43;;;;;;;4.35;1.13;;;17.80;99.90;;;;;;5090118;28;20044;-80
2022/07/16 07:13:09;;;;;;;4.28;1.35;;;17.80;99.90;;;;;;5086709;28;20032;-80
2022/07/16 07:15:35;;;;;;;5.60;1.45;;;17.80;99.90;;;;;;5080922;28;20028;-75
2022/07/16 07:18:01;;;;;;;4.68;1.40;;;17.80;99.90;;;;;;5076186;28;20047;-79
2022/07/16 07:20:28;;;;;;;4.07;1.55;;;17.90;99.90;;;;;;5084062;28;20021;-77
2022/07/16 07:22:54;;;;;;;3.25;1.02;;;17.90;99.90;;;;;;5083150;28;20051;-83
2022/07/16 07:25:19;;;;;;;4.95;0.98;;;17.90;99.90;;;;;;5085657;28;20016;-79
2022/07/16 07:27:45;;;;;;;6.00;1.33;;;18.00;99.90;;;;;;5086251;28;20020;-80
2022/07/16 07:30:12;;;;;;;3.50;1.33;;;18.00;99.90;;;;;;5083852;28;20032;-80
2022/07/16 07:32:37;;;;;;;2.30;1.10;;;18.00;99.90;;;;;;5086769;28;20100;-81
2022/07/16 07:35:04;;;;;;;4.47;1.08;;;18.00;99.90;;;;;;5084447;28;20086;-83
2022/07/16 07:37:29;;;;;;;2.60;0.75;;;18.00;99.90;;;;;;5084903;28;20387;-83
2022/07/16 07:39:55;;;;;;;4.70;1.13;;;18.00;99.90;;;;;;5088695;28;20012;-81
2022/07/16 07:42:20;;;;;;;5.32;1.02;;;18.00;99.90;;;;;;5089126;28;20024;-84
2022/07/16 07:44:46;;;;;;;6.22;1.38;;;18.10;99.90;;;;;;5081130;28;20029;-82
2022/07/16 07:47:12;;;;;;;3.85;1.05;;;18.30;99.90;;;;;;5081557;28;20104;-82
2022/07/16 07:49:37;;;;;;;5.07;1.23;;;18.40;99.90;;;;;;5090512;28;20042;-82
2022/07/16 07:52:03;;;;;;;5.03;1.65;;;18.40;99.90;;;;;;5099587;28;20028;-81
2022/07/16 07:54:28;;;;;;;4.25;1.10;;;18.40;99.90;;;;;;5095072;28;20479;-74
2022/07/16 07:57:03;;;;;;;2.50;0.93;;;18.30;99.90;;;;;;5085879;28;20043;-76
2022/07/16 07:59:29;;;;;;;3.90;1.00;;;18.40;99.90;;;;;;5093049;28;20024;-74
2022/07/16 08:01:54;;;;;;;4.75;1.25;;;18.50;99.90;;;;;;5087692;28;20499;-74
2022/07/16 08:04:20;;;;;;;2.55;1.02;;;18.60;99.90;;;;;;5083252;28;20036;-75
2022/07/16 08:06:45;;;;;;;1.80;0.80;;;18.60;99.90;;;;;;5083189;28;20030;-77
2022/07/16 08:09:13;;;;;;;6.10;0.95;;;18.80;99.90;;;;;;5081291;28;20040;-75
2022/07/16 08:11:40;;;;;;;2.45;0.90;;;18.80;99.90;;;;;;5081713;28;20039;-76
2022/07/16 08:14:06;;;;;;;3.97;1.10;;;18.80;99.90;;;;;;5079496;28;20027;-75
2022/07/16 08:16:31;;;;;;;3.17;1.13;;;18.80;99.90;;;;;;5086152;28;20083;-77
2022/07/16 08:18:57;;;;;;;1.83;0.70;;;18.80;99.90;;;;;;5087775;28;20016;-75
2022/07/16 08:21:22;;;;;;;2.58;1.00;;;18.90;99.90;;;;;;5088227;28;21417;-74
2022/07/16 08:26:32;;;;;;;4.38;1.00;;;19.00;99.20;;;;;;5091205;28;20584;-72
2022/07/16 08:28:58;;;;;;;1.33;0.88;;;19.10;99.00;;;;;;5096098;28;20024;-72
2022/07/16 08:31:23;;;;;;;1.40;0.73;;;19.30;99.20;;;;;;5089466;28;20071;-72
2022/07/16 08:33:49;;;;;;;2.33;1.17;;;19.30;98.00;;;;;;5089311;28;20026;-72
2022/07/16 08:36:14;;;;;;;1.67;0.90;;;19.10;98.70;;;;;;5100186;28;20039;-72
2022/07/16 08:38:40;;;;;;;2.17;0.95;;;19.10;98.30;;;;;;5088822;28;20400;-72
2022/07/16 08:41:06;;;;;;;3.95;0.85;;;19.10;98.50;;;;;;5088893;28;20741;-74
2022/07/16 08:43:32;;;;;;;3.47;1.30;;;19.00;98.20;;;;;;5090835;28;20096;-74
2022/07/16 08:45:59;;;;;;;5.25;0.90;;;19.00;98.70;;;;;;5093064;28;20028;-76
2022/07/16 08:48:24;;;;;;;3.20;1.30;;;19.00;98.50;;;;;;5090894;28;20033;-75
2022/07/16 08:50:53;;;;;;;1.70;0.88;;;19.00;98.70;;;;;;5095418;28;20111;-76
2022/07/16 08:53:23;;;;;;;4.65;1.10;;;19.10;98.50;;;;;;5086410;28;20021;-74
2022/07/16 08:55:52;;;;;;;4.88;1.10;;;19.10;98.30;;;;;;5083928;28;20028;-75
2022/07/16 08:58:18;;;;;;;4.78;0.95;;;19.20;98.80;;;;;;5081547;28;20707;-73
2022/07/16 09:00:45;;;;;;;3.08;1.02;;;19.20;98.80;;;;;;5076958;28;20085;-73
2022/07/16 09:03:14;;;;;;;4.95;1.10;;;19.20;98.90;;;;;;5076964;28;20035;-74
2022/07/16 09:05:41;;;;;;;2.05;0.90;;;19.20;98.60;;;;;;5076547;28;20483;-74
2022/07/16 09:08:07;;;;;;;2.88;1.08;;;19.20;98.90;;;;;;5074803;28;20321;-74
2022/07/16 09:10:37;;;;;;;4.22;1.05;;;19.10;98.80;;;;;;5079158;28;20057;-77
2022/07/16 09:13:04;;;;;;;3.75;0.80;;;19.10;99.60;;;;;;5080301;28;20021;-76
2022/07/16 09:15:33;;;;;;;1.50;1.13;;;19.30;98.80;;;;;;5093839;28;20041;-77
2022/07/16 09:18:20;;;;;;;8.77;1.45;;;19.40;98.40;;;;;;5094494;28;20024;-77
2022/07/16 09:20:55;;;;;;;2.25;0.82;;;19.50;97.70;;;;;;5085388;28;20032;-78
2022/07/16 09:23:27;;;;;;;3.40;1.20;;;19.60;97.50;;;;;;5082271;28;20492;-75
2022/07/16 09:26:00;;;;;;;4.13;1.20;;;19.80;97.80;;;;;;5093760;28;20471;-77
2022/07/16 09:28:38;;;;;;;2.88;0.90;;;19.80;97.70;;;;;;5094689;28;20032;-76
2022/07/16 09:31:04;;;;;;;2.25;0.80;;;19.90;97.60;;;;;;5093245;28;20026;-77
2022/07/16 09:33:29;;;;;;;3.67;1.50;;;19.90;96.00;;;;;;5089853;28;20077;-76
2022/07/16 09:36:10;;;;;;;6.63;1.10;;;19.90;95.90;;;;;;5079135;28;20037;-77
2022/07/16 09:38:50;;;;;;;2.88;1.00;;;19.90;95.90;;;;;;5081745;28;20027;-78
2022/07/16 09:41:17;;;;;;;2.20;1.00;;;20.00;96.80;;;;;;5083170;28;20028;-79
2022/07/16 09:43:43;;;;;;;2.35;1.00;;;20.00;96.40;;;;;;5080326;28;20028;-78
2022/07/16 09:46:14;;;;;;;6.53;1.67;;;19.90;95.60;;;;;;5080636;28;20099;-72
2022/07/16 09:48:42;;;;;;;3.03;1.10;;;20.00;96.00;;;;;;5076012;28;20024;-78
2022/07/16 09:51:26;;;;;;;4.32;0.70;;;20.30;95.80;;;;;;5080810;28;20036;-77
2022/07/16 09:53:54;;;;;;;2.05;0.90;;;20.50;94.80;;;;;;5083733;28;20028;-77
2022/07/16 09:56:22;;;;;;;2.85;0.75;;;20.60;94.50;;;;;;5082734;28;20042;-77
2022/07/16 09:58:50;;;;;;;6.18;1.45;;;20.80;94.90;;;;;;5082280;28;20020;-79
2022/07/16 10:01:17;;;;;;;4.03;1.20;;;20.80;94.40;;;;;;5084645;28;20016;-77
2022/07/16 10:03:43;;;;;;;2.42;0.80;;;20.60;94.30;;;;;;5083863;28;20078;-77
2022/07/16 10:06:10;;;;;;;1.58;0.77;;;20.30;94.80;;;;;;5081207;28;20031;-76
2022/07/16 10:08:36;;;;;;;5.18;1.50;;;20.30;94.60;;;;;;5085552;28;20442;-78
2022/07/16 10:11:01;;;;;;;1.27;0.80;;;20.40;94.80;;;;;;5048983;28;1055535;-78
2022/07/16 10:13:29;;;;;;;2.65;0.95;;;20.40;94.90;;;;;;5085355;28;20035;-77
2022/07/16 10:15:55;;;;;;;4.95;1.63;;;20.20;94.90;;;;;;5082279;28;20036;-78
2022/07/16 10:18:29;;;;;;;2.63;1.15;;;20.10;95.00;;;;;;5074341;28;20028;-77
2022/07/16 10:21:05;;;;;;;2.05;0.80;;;20.70;95.70;;;;;;5074246;28;20025;-77
2022/07/16 10:23:32;;;;;;;3.53;1.00;;;20.10;95.80;;;;;;5074990;28;20029;-78
2022/07/16 10:26:09;;;;;;;4.20;1.55;;;20.00;95.30;;;;;;5075723;28;20032;-76
2022/07/16 10:28:38;;;;;;;1.50;0.93;;;20.00;95.50;;;;;;5083157;28;20050;-76
2022/07/16 10:31:38;;;;;;;3.90;1.10;;;20.20;95.40;;;;;;5075336;28;20373;-79
2022/07/16 10:34:16;;;;;;;1.80;0.97;;;20.20;94.60;;;;;;5079785;28;20025;-77
2022/07/16 10:36:55;;;;;;;4.35;1.25;;;20.30;94.70;;;;;;5080899;28;20356;-78
2022/07/16 10:39:26;;;;;;;2.03;1.00;;;20.40;95.50;;;;;;5073750;28;20032;-77
2022/07/16 10:42:16;;;;;;;2.08;0.90;;;20.70;95.60;;;;;;5078774;28;20063;-77
2022/07/16 10:44:48;;;;;;;4.68;1.30;;;20.80;94.50;;;;;;5082077;28;20038;-78
2022/07/16 10:47:14;;;;;;;1.52;0.90;;;20.80;94.30;;;;;;5078859;28;20024;-79
2022/07/16 10:49:41;;;;;;;3.22;1.20;;;20.80;94.50;;;;;;5080171;28;20045;-77
2022/07/16 10:52:14;;;;;;;1.55;1.02;;;20.60;95.30;;;;;;5075047;28;20447;-73
2022/07/16 10:55:00;;;;;;;3.10;1.30;;;20.50;95.10;;;;;;5074555;28;20047;-77
2022/07/16 10:57:34;;;;;;;2.55;0.80;;;20.50;95.10;;;;;;5092772;28;20032;-78
2022/07/16 11:00:00;;;;;;;1.88;0.90;;;20.60;95.10;;;;;;5089834;28;20028;-77
2022/07/16 11:02:27;;;;;;;3.97;1.10;;;20.70;94.40;;;;;;5104121;28;20099;-77
2022/07/16 11:04:53;;;;;;;4.30;0.98;;;20.60;94.60;;;;;;5113532;28;20189;-77
2022/07/16 11:07:20;;;;;;;1.95;1.15;;;20.50;95.60;;;;;;5112909;28;20435;-77
2022/07/16 11:09:50;;;;;;;3.33;0.80;;;20.50;94.50;;;;;;5111847;28;20047;-76
2022/07/16 11:12:25;;;;;;;3.45;0.90;;;20.60;94.30;;;;;;5111288;28;20027;-77
2022/07/16 11:14:56;;;;;;;3.75;1.08;;;20.60;95.20;;;;;;5110910;28;20113;-77
2022/07/16 11:17:25;;;;;;;5.75;1.10;;;20.80;95.10;;;;;;5112437;28;20028;-76
2022/07/16 11:19:55;;;;;;;2.38;1.02;;;20.80;94.10;;;;;;5112122;28;20055;-76
2022/07/16 11:22:23;;;;;;;3.45;1.10;;;20.90;94.00;;;;;;5111676;28;20031;-76
2022/07/16 11:24:54;;;;;;;4.10;1.13;;;20.80;93.60;;;;;;5112061;28;20027;-77
2022/07/16 11:27:37;;;;;;;6.18;1.25;;;20.70;93.80;;;;;;5106341;28;20028;-77
2022/07/16 11:30:10;;;;;;;3.03;1.00;;;20.60;94.40;;;;;;5118856;28;20024;-75
2022/07/16 11:32:46;;;;;;;3.80;1.05;;;20.60;95.30;;;;;;5114011;28;20042;-77
2022/07/16 11:35:12;;;;;;;3.10;1.00;;;20.90;95.10;;;;;;5112119;28;20487;-77
2022/07/16 11:37:55;;;;;;;1.98;1.02;;;21.10;94.10;;;;;;5111203;28;20390;-77
2022/07/16 11:40:35;;;;;;;4.05;1.02;;;21.10;93.30;;;;;;5100713;28;20024;-78
2022/07/16 11:43:01;;;;;;;3.72;1.30;;;21.00;93.30;;;;;;5110229;28;20164;-76
2022/07/16 11:45:27;;;;;;;3.95;1.08;;;21.10;94.00;;;;;;5112025;28;20491;-77
2022/07/16 11:48:13;;;;;;;5.68;1.10;;;21.20;94.50;;;;;;5111295;28;20486;-77
2022/07/16 11:50:39;;;;;;;3.78;1.10;;;21.10;94.90;;;;;;5110270;28;20043;-76
2022/07/16 11:53:05;;;;;;;2.65;0.70;;;21.10;95.00;;;;;;5097431;28;20550;-77
2022/07/16 11:55:31;;;;;;;3.85;1.25;;;21.20;93.90;;;;;;5099442;28;20141;-78
2022/07/16 11:57:57;;;;;;;4.03;1.23;;;21.20;94.10;;;;;;5110874;28;20063;-78
2022/07/16 12:00:23;;;;;;;2.35;0.75;;;21.20;93.70;;;;;;5110796;28;20050;-77
2022/07/16 12:02:55;;;;;;;4.75;1.10;;;21.20;94.40;;;;;;5104652;28;20024;-77
2022/07/16 12:05:28;;;;;;;2.92;1.02;;;21.30;93.10;;;;;;5111066;28;20060;-77
2022/07/16 12:07:53;;;;;;;2.88;1.20;;;21.20;93.50;;;;;;5074844;28;20077;-77
2022/07/16 12:10:24;;;;;;;1.63;1.00;;;21.20;93.40;;;;;;5074601;28;20036;-79
2022/07/16 12:13:01;;;;;;;3.20;0.90;;;21.30;93.90;;;;;;5082568;28;20542;-85
2022/07/16 12:15:26;;;;;;;4.72;1.02;;;21.40;93.50;;;;;;5078638;28;20499;-77
2022/07/16 12:17:52;;;;;;;1.67;0.90;;;21.40;93.70;;;;;;5087541;28;20037;-78
2022/07/16 12:20:24;;;;;;;3.28;1.23;;;21.50;93.30;;;;;;5092942;28;20031;-78
2022/07/16 12:22:58;;;;;;;1.88;0.95;;;21.50;93.50;;;;;;5092332;28;20032;-78
2022/07/16 12:25:32;;;;;;;1.85;0.90;;;21.40;93.80;;;;;;5079970;28;20383;-79
2022/07/16 12:27:59;;;;;;;2.05;0.90;;;21.20;92.80;;;;;;5092341;28;20024;-78
2022/07/16 12:30:34;;;;;;;2.90;0.90;;;21.20;92.00;;;;;;5092992;28;20036;-78
2022/07/16 12:33:01;;;;;;;1.65;0.80;;;21.30;92.70;;;;;;5091716;28;20024;-78
2022/07/16 12:35:47;;;;;;;3.97;0.90;;;21.40;92.30;;;;;;5092481;28;20475;-77
2022/07/16 12:38:38;;;;;;;5.18;0.88;;;21.50;93.90;;;;;;5092249;28;20035;-79
2022/07/16 12:41:13;;;;;;;2.33;0.75;;;21.50;93.10;;;;;;5081814;28;20027;-78
2022/07/16 12:43:44;;;;;;;1.90;1.08;;;21.20;91.90;;;;;;5090226;28;20091;-78
2022/07/16 12:46:10;;;;;;;2.58;1.02;;;21.30;92.80;;;;;;5091730;28;20103;-77
2022/07/16 12:48:50;;;;;;;2.67;0.80;;;21.40;92.70;;;;;;5092363;28;20016;-79
2022/07/16 12:51:19;;;;;;;3.33;0.90;;;21.50;93.20;;;;;;5092570;28;20032;-79
2022/07/16 12:53:46;;;;;;;3.35;0.88;;;21.70;92.60;;;;;;5091668;28;20040;-80